createdAt,value
2023-04-03T00:02:10.246Z,78.58
2023-04-03T00:04:36.883Z,79.14
2023-04-03T00:07:03.382Z,78.23
2023-04-03T00:09:29.781Z,78.67
2023-04-03T00:11:56.188Z,78.03
2023-04-03T00:14:22.953Z,77.79
2023-04-03T00:16:49.484Z,76.99
2023-04-03T00:19:16.313Z,77.72
2023-04-03T00:21:42.707Z,77.52
2023-04-03T00:24:09.100Z,77.28
2023-04-03T00:26:35.579Z,77.22
2023-04-03T00:29:01.992Z,76.78
2023-04-03T00:31:28.457Z,76.48
2023-04-03T00:33:55.007Z,75.87
2023-04-03T00:36:21.537Z,76.00
2023-04-03T00:38:48.704Z,76.22
2023-04-03T00:41:15.322Z,76.14
2023-04-03T00:43:41.871Z,75.89
2023-04-03T00:46:08.669Z,75.54
2023-04-03T00:48:42.792Z,75.80
2023-04-03T00:51:14.641Z,75.45
2023-04-03T00:53:46.834Z,75.05
2023-04-03T00:56:16.359Z,74.94
2023-04-03T00:59:02.298Z,74.67
2023-04-03T01:01:30.589Z,74.79
2023-04-03T01:03:57.308Z,74.46
2023-04-03T01:06:29.405Z,74.60
2023-04-03T01:09:01.544Z,74.48
2023-04-03T01:11:28.179Z,74.88
2023-04-03T01:13:54.818Z,74.59
2023-04-03T01:16:21.340Z,74.21
2023-04-03T01:18:47.925Z,74.81
2023-04-03T01:21:32.526Z,74.84
2023-04-03T01:24:33.426Z,74.41
2023-04-03T01:27:01.918Z,74.80
2023-04-03T01:29:28.406Z,74.60
2023-04-03T01:32:05.393Z,74.53
2023-04-03T01:34:31.905Z,75.20
2023-04-03T01:36:59.366Z,75.06
2023-04-03T01:39:26.049Z,73.79
2023-04-03T01:41:52.538Z,73.97
2023-04-03T01:44:35.368Z,73.65
2023-04-03T01:47:01.895Z,73.26
2023-04-03T01:49:29.421Z,73.14
2023-04-03T01:51:56.429Z,73.01
2023-04-03T01:54:22.884Z,72.85
2023-04-03T01:56:49.363Z,71.84
2023-04-03T01:59:17.975Z,72.15
2023-04-03T02:01:46.104Z,71.67
2023-04-03T02:04:13.315Z,71.42
2023-04-03T02:06:39.780Z,71.22
2023-04-03T02:09:06.433Z,71.57
2023-04-03T02:11:32.880Z,71.04
2023-04-03T02:13:59.303Z,70.86
2023-04-03T02:16:26.057Z,70.98
2023-04-03T02:18:52.595Z,70.60
2023-04-03T02:21:19.098Z,70.68
2023-04-03T02:23:45.595Z,70.68
2023-04-03T02:26:14.926Z,71.09
2023-04-03T02:28:42.111Z,71.06
2023-04-03T02:31:09.860Z,70.61
2023-04-03T02:33:38.618Z,69.65
2023-04-03T02:36:08.882Z,70.00
2023-04-03T02:38:36.213Z,69.73
2023-04-03T02:41:08.824Z,68.90
2023-04-03T02:43:35.845Z,69.55
2023-04-03T02:46:03.883Z,69.34
2023-04-03T02:48:30.622Z,69.40
2023-04-03T02:50:57.085Z,69.53
2023-04-03T02:53:23.931Z,70.15
2023-04-03T02:55:51.243Z,70.36
2023-04-03T02:58:17.700Z,69.89
2023-04-03T03:00:44.528Z,69.98
2023-04-03T03:03:11.255Z,70.06
2023-04-03T03:05:37.678Z,70.31
2023-04-03T03:08:04.315Z,69.73
2023-04-03T03:10:31.254Z,70.00
2023-04-03T03:12:57.675Z,69.99
2023-04-03T03:15:24.201Z,69.36
2023-04-03T03:17:50.600Z,69.25
2023-04-03T03:20:17.336Z,69.89
2023-04-03T03:22:44.902Z,70.03
2023-04-03T03:25:11.365Z,69.96
2023-04-03T03:27:37.775Z,69.43
2023-04-03T03:30:05.988Z,68.93
2023-04-03T03:32:33.075Z,68.60
2023-04-03T03:34:59.510Z,68.60
2023-04-03T03:37:25.915Z,68.83
2023-04-03T03:39:52.488Z,69.18
2023-04-03T03:42:18.919Z,68.92
2023-04-03T03:44:45.695Z,68.79
2023-04-03T03:47:12.220Z,68.50
2023-04-03T03:49:39.352Z,68.36
2023-04-03T03:52:05.895Z,68.25
2023-04-03T03:54:32.368Z,68.35
2023-04-03T03:56:58.908Z,68.16
2023-04-03T03:59:25.931Z,68.44
2023-04-03T04:01:52.945Z,68.12
2023-04-03T04:04:19.950Z,68.04
2023-04-03T04:06:46.956Z,67.83
2023-04-03T04:09:13.777Z,68.02
2023-04-03T04:11:41.297Z,68.04
2023-04-03T04:14:11.400Z,67.81
2023-04-03T04:16:38.360Z,68.15
2023-04-03T04:19:10.862Z,67.79
2023-04-03T04:21:40.235Z,68.18
2023-04-03T04:24:07.166Z,68.12
2023-04-03T04:26:33.655Z,68.20
2023-04-03T04:29:01.287Z,67.78
2023-04-03T04:31:28.467Z,68.21
2023-04-03T04:33:55.184Z,68.08
2023-04-03T04:36:21.979Z,67.29
2023-04-03T04:38:48.970Z,67.44
2023-04-03T04:41:16.907Z,67.78
2023-04-03T04:43:44.406Z,67.70
2023-04-03T04:46:13.043Z,67.83
2023-04-03T04:48:45.402Z,67.83
2023-04-03T04:51:12.936Z,67.92
2023-04-03T04:53:39.780Z,67.67
2023-04-03T04:56:07.814Z,67.65
2023-04-03T04:58:36.496Z,68.14
2023-04-03T05:01:06.393Z,68.14
2023-04-03T05:03:35.589Z,68.17
2023-04-03T05:06:02.183Z,68.13
2023-04-03T05:08:31.869Z,68.31
2023-04-03T05:10:58.621Z,69.20
2023-04-03T05:13:27.037Z,68.95
2023-04-03T05:15:54.474Z,69.35
2023-04-03T05:18:21.225Z,69.29
2023-04-03T05:20:51.224Z,69.62
2023-04-03T05:23:19.282Z,69.60
2023-04-03T05:25:47.925Z,69.44
2023-04-03T05:28:14.771Z,69.47
2023-04-03T05:30:41.624Z,70.22
2023-04-03T05:33:08.952Z,69.95
2023-04-03T05:35:42.718Z,69.94
2023-04-03T05:38:12.491Z,70.26
2023-04-03T05:40:38.935Z,70.20
2023-04-03T05:43:06.481Z,70.80
2023-04-03T05:45:35.946Z,71.14
2023-04-03T05:48:02.571Z,70.96
2023-04-03T05:50:31.124Z,71.07
2023-04-03T05:52:59.953Z,71.32
2023-04-03T05:55:28.789Z,71.48
2023-04-03T05:57:55.528Z,71.60
2023-04-03T06:00:22.631Z,71.64
2023-04-03T06:02:58.476Z,71.54
2023-04-03T06:05:25.803Z,71.77
2023-04-03T06:07:52.373Z,71.85
2023-04-03T06:10:19.189Z,72.00
2023-04-03T06:12:46.206Z,71.59
2023-04-03T06:15:12.782Z,71.21
2023-04-03T06:17:40.768Z,71.72
2023-04-03T06:20:08.732Z,71.52
2023-04-03T06:22:35.492Z,71.86
2023-04-03T06:25:02.457Z,71.69
2023-04-03T06:27:28.843Z,71.87
2023-04-03T06:29:55.669Z,71.52
2023-04-03T06:32:22.058Z,71.83
2023-04-03T06:34:48.477Z,71.37
2023-04-03T06:37:19.482Z,71.20
2023-04-03T06:39:46.212Z,71.13
2023-04-03T06:42:12.613Z,70.97
2023-04-03T06:44:47.713Z,71.18
2023-04-03T06:47:16.066Z,71.04
2023-04-03T06:49:43.669Z,70.52
2023-04-03T06:52:10.751Z,71.01
2023-04-03T06:54:37.144Z,70.63
2023-04-03T06:57:03.727Z,70.65
2023-04-03T06:59:30.371Z,70.62
2023-04-03T07:01:57.197Z,70.25
2023-04-03T07:04:23.646Z,69.71
2023-04-03T07:06:50.098Z,70.03
2023-04-03T07:09:16.560Z,69.71
2023-04-03T07:11:42.964Z,69.70
2023-04-03T07:14:09.393Z,69.41
2023-04-03T07:16:36.240Z,69.58
2023-04-03T07:19:03.812Z,69.44
2023-04-03T07:21:30.383Z,69.08
2023-04-03T07:23:56.795Z,68.37
2023-04-03T07:26:23.618Z,68.54
2023-04-03T07:28:50.819Z,68.27
2023-04-03T07:31:19.260Z,68.15
2023-04-03T07:33:46.161Z,67.72
2023-04-03T07:36:17.729Z,68.68
2023-04-03T07:38:44.318Z,68.59
2023-04-03T07:41:18.594Z,68.37
2023-04-03T07:43:46.087Z,67.81
2023-04-03T07:46:13.134Z,67.75
2023-04-03T07:48:39.817Z,67.83
2023-04-03T07:51:06.576Z,67.79
2023-04-03T07:53:33.848Z,68.05
2023-04-03T07:56:00.988Z,67.01
2023-04-03T07:58:27.766Z,65.95
2023-04-03T08:00:54.297Z,66.04
2023-04-03T08:03:21.181Z,64.93
2023-04-03T08:05:49.185Z,65.50
2023-04-03T08:08:22.212Z,65.73
2023-04-03T08:10:53.668Z,65.27
2023-04-03T08:13:20.333Z,65.76
2023-04-03T08:15:47.608Z,65.92
2023-04-03T08:18:16.169Z,66.36
2023-04-03T08:20:42.831Z,65.88
2023-04-03T08:23:09.773Z,66.59
2023-04-03T08:25:42.380Z,65.39
2023-04-03T08:28:09.688Z,65.33
2023-04-03T08:30:37.089Z,64.88
2023-04-03T08:33:03.883Z,65.07
2023-04-03T08:35:30.632Z,64.55
2023-04-03T08:37:57.501Z,64.89
2023-04-03T08:40:24.533Z,65.02
2023-04-03T08:43:28.629Z,64.73
2023-04-03T08:45:58.487Z,64.06
2023-04-03T08:48:30.529Z,63.36
2023-04-03T08:51:05.402Z,62.21
2023-04-03T08:53:36.412Z,63.14
2023-04-03T08:56:14.597Z,62.50
2023-04-03T08:58:48.271Z,61.91
2023-04-03T09:01:26.908Z,62.33
2023-04-03T09:03:53.419Z,62.38
2023-04-03T09:06:23.443Z,61.96
2023-04-03T09:09:08.025Z,61.48
2023-04-03T09:11:47.147Z,62.04
2023-04-03T09:14:33.102Z,61.94
2023-04-03T09:17:20.313Z,62.08
2023-04-03T09:20:12.655Z,62.37
2023-04-03T09:22:49.775Z,62.50
2023-04-03T09:25:23.081Z,63.24
2023-04-03T09:27:51.671Z,63.02
2023-04-03T09:30:28.428Z,62.59
2023-04-03T09:32:57.157Z,62.83
2023-04-03T09:35:47.543Z,62.85
2023-04-03T09:38:15.036Z,62.40
2023-04-03T09:40:48.047Z,61.89
2023-04-03T09:43:28.163Z,62.38
2023-04-03T09:45:56.564Z,61.88
2023-04-03T09:48:26.200Z,62.83
2023-04-03T09:51:00.129Z,62.48
2023-04-03T09:53:37.536Z,62.59
2023-04-03T09:56:26.634Z,63.36
2023-04-03T09:59:13.776Z,62.09
2023-04-03T10:01:43.346Z,63.18
2023-04-03T10:04:11.835Z,61.85
2023-04-03T10:06:49.366Z,61.69
2023-04-03T10:09:26.420Z,60.63
2023-04-03T10:12:13.077Z,59.60
2023-04-03T10:14:41.461Z,60.00
2023-04-03T10:17:50.288Z,59.73
2023-04-03T10:20:48.089Z,59.56
2023-04-03T10:23:21.399Z,59.62
2023-04-03T10:26:06.617Z,60.03
2023-04-03T10:28:58.214Z,59.59
2023-04-03T10:31:36.678Z,59.66
2023-04-03T10:34:16.897Z,59.99
2023-04-03T10:36:46.091Z,60.73
2023-04-03T10:39:28.222Z,61.42
2023-04-03T10:42:19.113Z,61.22
2023-04-03T10:44:59.480Z,60.48
2023-04-03T10:47:34.651Z,61.48
2023-04-03T10:50:39.382Z,61.19
2023-04-03T10:53:15.018Z,61.33
2023-04-03T10:55:54.595Z,61.13
2023-04-03T10:58:55.553Z,61.69
2023-04-03T11:01:32.380Z,62.04
2023-04-03T11:04:01.862Z,61.48
2023-04-03T11:06:43.559Z,61.07
2023-04-03T11:09:32.852Z,60.83
2023-04-03T11:12:07.018Z,60.84
2023-04-03T11:14:36.576Z,60.58
2023-04-03T11:17:22.899Z,59.75
2023-04-03T11:20:07.909Z,59.95
2023-04-03T11:22:39.551Z,60.04
2023-04-03T11:25:11.575Z,59.99
2023-04-03T11:27:57.664Z,60.46
2023-04-03T11:31:01.763Z,60.37
2023-04-03T11:34:06.100Z,60.38
2023-04-03T11:36:39.203Z,60.20
2023-04-03T11:39:21.375Z,60.20
2023-04-03T11:41:48.421Z,60.08
2023-04-03T11:44:37.324Z,59.88
2023-04-03T11:47:05.609Z,60.89
2023-04-03T11:50:04.445Z,60.36
2023-04-03T11:52:42.234Z,60.66
2023-04-03T11:55:22.213Z,60.10
2023-04-03T11:58:03.848Z,60.14
2023-04-03T12:00:48.552Z,58.80
2023-04-03T12:03:31.799Z,57.54
2023-04-03T12:06:07.633Z,58.21
2023-04-03T12:08:34.019Z,56.97
2023-04-03T12:11:09.424Z,56.09
2023-04-03T12:13:37.657Z,56.43
2023-04-03T12:16:06.496Z,56.94
2023-04-03T12:18:54.662Z,56.65
2023-04-03T12:21:22.609Z,56.18
2023-04-03T12:24:09.673Z,55.86
2023-04-03T12:26:48.679Z,56.08
2023-04-03T12:29:24.560Z,55.05
2023-04-03T12:32:00.045Z,54.97
2023-04-03T12:34:45.681Z,54.75
2023-04-03T12:37:49.324Z,54.48
2023-04-03T12:40:43.217Z,55.33
2023-04-03T12:43:14.412Z,55.24
2023-04-03T12:45:47.402Z,54.56
2023-04-03T12:48:18.051Z,54.02
2023-04-03T12:50:47.501Z,53.58
2023-04-03T12:53:19.214Z,53.52
2023-04-03T12:55:46.407Z,52.96
2023-04-03T12:58:27.098Z,53.81
2023-04-03T13:01:09.939Z,53.38
2023-04-03T13:03:40.122Z,53.65
2023-04-03T13:06:06.761Z,53.25
2023-04-03T13:08:33.425Z,53.94
2023-04-03T13:11:08.847Z,53.00
2023-04-03T13:13:35.323Z,52.71
2023-04-03T13:16:10.127Z,53.03
2023-04-03T13:18:38.063Z,52.88
2023-04-03T13:21:22.370Z,53.15
2023-04-03T13:23:55.339Z,52.18
2023-04-03T13:26:30.183Z,52.30
2023-04-03T13:29:02.564Z,52.82
2023-04-03T13:31:32.911Z,52.54
2023-04-03T13:34:04.591Z,51.96
2023-04-03T13:36:35.079Z,52.12
2023-04-03T13:39:13.567Z,51.02
2023-04-03T13:41:42.666Z,51.48
2023-04-03T13:44:24.076Z,51.42
2023-04-03T13:46:51.702Z,51.63
2023-04-03T13:49:46.671Z,50.68
2023-04-03T13:52:23.328Z,50.83
2023-04-03T13:54:55.892Z,50.63
2023-04-03T13:57:22.767Z,50.96
2023-04-03T13:59:50.821Z,51.43
2023-04-03T14:02:23.288Z,50.67
2023-04-03T14:04:59.289Z,51.17
2023-04-03T14:07:26.150Z,50.71
2023-04-03T14:09:53.176Z,51.26
2023-04-03T14:12:31.843Z,50.79
2023-04-03T14:15:03.995Z,50.48
2023-04-03T14:17:30.716Z,50.40
2023-04-03T14:19:58.574Z,51.08
2023-04-03T14:22:29.484Z,50.39
2023-04-03T14:24:57.318Z,51.04
2023-04-03T14:27:28.108Z,50.96
2023-04-03T14:29:57.250Z,50.44
2023-04-03T14:32:26.048Z,50.18
2023-04-03T14:34:53.351Z,50.34
2023-04-03T14:37:27.939Z,50.60
2023-04-03T14:39:54.812Z,50.55
2023-04-03T14:42:25.415Z,50.39
2023-04-03T14:44:52.711Z,50.44
2023-04-03T14:47:31.254Z,50.09
2023-04-03T14:50:04.519Z,50.29
2023-04-03T14:52:34.419Z,50.35
2023-04-03T14:55:02.398Z,49.50
2023-04-03T14:57:30.560Z,49.21
2023-04-03T14:59:57.527Z,48.92
2023-04-03T15:02:36.230Z,47.80
2023-04-03T15:05:06.379Z,47.29
2023-04-03T15:07:47.508Z,46.77
2023-04-03T15:10:26.301Z,45.67
2023-04-03T15:12:53.666Z,44.91
2023-04-03T15:15:22.542Z,44.71
2023-04-03T15:17:54.845Z,43.80
2023-04-03T15:20:26.189Z,44.68
2023-04-03T15:22:53.169Z,44.55
2023-04-03T15:25:19.905Z,45.41
2023-04-03T15:27:46.368Z,46.43
2023-04-03T15:30:16.547Z,46.17
2023-04-03T15:32:43.057Z,46.03
2023-04-03T15:35:09.861Z,46.91
2023-04-03T15:37:36.579Z,46.95
2023-04-03T15:40:04.820Z,46.25
2023-04-03T15:42:31.271Z,47.01
2023-04-03T15:44:57.751Z,46.57
2023-04-03T15:47:25.693Z,46.76
2023-04-03T15:49:52.364Z,47.04
2023-04-03T15:52:18.761Z,46.99
2023-04-03T15:54:45.149Z,46.65
2023-04-03T15:57:11.634Z,45.97
2023-04-03T15:59:38.088Z,45.04
2023-04-03T16:02:08.483Z,44.29
2023-04-03T16:04:35.449Z,43.54
2023-04-03T16:07:03.415Z,43.71
2023-04-03T16:09:31.183Z,44.44
2023-04-03T16:11:57.696Z,44.81
2023-04-03T16:14:24.133Z,44.49
2023-04-03T16:16:50.670Z,44.29
2023-04-03T16:19:17.245Z,45.49
2023-04-03T16:21:43.720Z,46.03
2023-04-03T16:24:10.344Z,45.38
2023-04-03T16:26:36.783Z,46.12
2023-04-03T16:29:03.306Z,46.04
2023-04-03T16:31:30.108Z,46.09
2023-04-03T16:33:57.400Z,47.39
2023-04-03T16:36:25.592Z,47.71
2023-04-03T16:38:52.312Z,46.86
2023-04-03T16:41:18.802Z,47.04
2023-04-03T16:43:45.231Z,48.15
2023-04-03T16:46:11.890Z,47.70
2023-04-03T16:48:38.490Z,46.82
2023-04-03T16:51:04.909Z,45.65
2023-04-03T16:53:31.482Z,45.54
2023-04-03T16:55:59.274Z,45.55
2023-04-03T16:58:26.103Z,44.33
2023-04-03T17:00:54.491Z,45.17
2023-04-03T17:03:21.162Z,45.06
2023-04-03T17:05:48.886Z,45.28
2023-04-03T17:08:17.239Z,45.78
2023-04-03T17:10:43.681Z,44.83
2023-04-03T17:13:10.137Z,44.46
2023-04-03T17:15:37.048Z,44.74
2023-04-03T17:18:03.660Z,45.46
2023-04-03T17:20:30.752Z,46.38
2023-04-03T17:22:57.258Z,45.74
2023-04-03T17:25:23.652Z,45.46
2023-04-03T17:27:50.317Z,46.28
2023-04-03T17:30:17.518Z,46.05
2023-04-03T17:32:43.932Z,46.62
2023-04-03T17:35:11.698Z,46.40
2023-04-03T17:37:39.362Z,46.97
2023-04-03T17:40:06.636Z,47.09
2023-04-03T17:42:33.477Z,47.96
2023-04-03T17:45:01.039Z,47.55
2023-04-03T17:47:27.590Z,47.80
2023-04-03T17:49:54.055Z,48.70
2023-04-03T17:52:20.520Z,48.79
2023-04-03T17:54:46.915Z,49.22
2023-04-03T17:57:13.335Z,49.81
2023-04-03T17:59:39.868Z,49.50
2023-04-03T18:02:06.471Z,50.55
2023-04-03T18:04:32.965Z,50.14
2023-04-03T18:06:59.464Z,50.46
2023-04-03T18:09:32.204Z,51.00
2023-04-03T18:12:02.317Z,51.74
2023-04-03T18:14:29.183Z,51.97
2023-04-03T18:16:57.445Z,51.95
2023-04-03T18:19:24.415Z,52.76
2023-04-03T18:21:57.471Z,52.01
2023-04-03T18:24:25.821Z,52.04
2023-04-03T18:26:58.423Z,52.86
2023-04-03T18:29:25.226Z,52.69
2023-04-03T18:31:55.697Z,53.23
2023-04-03T18:34:22.416Z,53.32
2023-04-03T18:36:49.177Z,53.67
2023-04-03T18:39:15.794Z,53.83
2023-04-03T18:41:42.807Z,53.61
2023-04-03T18:44:14.137Z,53.60
2023-04-03T18:46:40.512Z,54.19
2023-04-03T18:49:08.090Z,53.80
2023-04-03T18:51:34.611Z,54.06
2023-04-03T18:54:01.808Z,53.94
2023-04-03T18:56:29.080Z,54.18
2023-04-03T18:58:55.579Z,54.09
2023-04-03T19:01:22.244Z,53.98
2023-04-03T19:03:48.957Z,54.37
2023-04-03T19:06:15.714Z,54.43
2023-04-03T19:08:42.392Z,54.39
2023-04-03T19:11:08.880Z,54.51
2023-04-03T19:13:35.498Z,54.55
2023-04-03T19:16:02.408Z,55.03
2023-04-03T19:18:29.623Z,55.22
2023-04-03T19:20:57.377Z,54.96
2023-04-03T19:23:24.658Z,55.20
2023-04-03T19:26:06.008Z,54.60
2023-04-03T19:28:32.719Z,54.76
2023-04-03T19:31:00.391Z,54.79
2023-04-03T19:33:27.528Z,54.97
2023-04-03T19:35:54.322Z,55.06
2023-04-03T19:38:21.093Z,54.88
2023-04-03T19:40:47.604Z,55.27
2023-04-03T19:43:16.187Z,54.67
2023-04-03T19:45:43.799Z,55.33
2023-04-03T19:48:10.366Z,55.56
2023-04-03T19:50:36.840Z,55.77
2023-04-03T19:53:03.724Z,55.58
2023-04-03T19:55:31.323Z,55.70
2023-04-03T19:57:59.399Z,56.18
2023-04-03T20:00:26.665Z,55.72
2023-04-03T20:02:53.197Z,55.66
2023-04-03T20:05:20.837Z,55.84
2023-04-03T20:07:47.888Z,55.91
2023-04-03T20:10:16.175Z,56.33
2023-04-03T20:12:42.919Z,56.34
2023-04-03T20:15:10.252Z,56.84
2023-04-03T20:17:37.414Z,56.65
2023-04-03T20:20:04.785Z,56.57
2023-04-03T20:22:32.724Z,56.62
2023-04-03T20:25:05.918Z,57.33
2023-04-03T20:27:34.584Z,57.23
2023-04-03T20:30:04.024Z,56.76
2023-04-03T20:32:31.297Z,56.39
2023-04-03T20:35:04.293Z,55.95
2023-04-03T20:37:31.739Z,55.74
2023-04-03T20:39:58.190Z,55.93
2023-04-03T20:42:24.627Z,55.28
2023-04-03T20:44:51.032Z,55.22
2023-04-03T20:47:17.556Z,55.42
2023-04-03T20:49:46.130Z,55.55
2023-04-03T20:52:12.565Z,55.73
2023-04-03T20:54:40.007Z,55.56
2023-04-03T20:57:06.608Z,55.82
2023-04-03T20:59:34.045Z,55.39
2023-04-03T21:02:01.080Z,55.85
2023-04-03T21:04:41.428Z,55.85
2023-04-03T21:07:46.587Z,56.15
2023-04-03T21:10:50.731Z,56.36
2023-04-03T21:13:54.773Z,56.74
2023-04-03T21:16:21.548Z,56.92
2023-04-03T21:19:15.720Z,56.75
2023-04-03T21:21:45.566Z,56.80
2023-04-03T21:24:13.743Z,57.54
2023-04-03T21:26:41.566Z,57.34
2023-04-03T21:29:08.704Z,56.89
2023-04-03T21:31:58.535Z,56.34
2023-04-03T21:34:27.533Z,56.91
2023-04-03T21:37:04.729Z,56.59
2023-04-03T21:39:31.599Z,55.96
2023-04-03T21:41:58.038Z,55.77
2023-04-03T21:44:28.290Z,55.53
2023-04-03T21:46:54.893Z,55.54
2023-04-03T21:49:22.607Z,55.44
2023-04-03T21:51:51.314Z,55.63
2023-04-03T21:54:18.248Z,54.96
2023-04-03T21:56:44.680Z,55.44
2023-04-03T21:59:11.264Z,55.65
2023-04-03T22:01:37.875Z,55.56
2023-04-03T22:04:04.346Z,56.26
2023-04-03T22:06:31.143Z,55.98
2023-04-03T22:08:57.724Z,55.88
2023-04-03T22:11:27.443Z,55.89
2023-04-03T22:13:55.296Z,55.93
2023-04-03T22:16:25.033Z,55.37
2023-04-03T22:18:52.684Z,54.94
2023-04-03T22:21:20.284Z,54.72
2023-04-03T22:23:46.732Z,54.77
2023-04-03T22:26:14.170Z,55.25
2023-04-03T22:28:42.621Z,54.66
2023-04-03T22:31:10.760Z,54.22
2023-04-03T22:33:38.161Z,54.17
2023-04-03T22:36:09.007Z,54.88
2023-04-03T22:38:36.975Z,54.73
2023-04-03T22:41:05.694Z,54.83
2023-04-03T22:43:33.967Z,54.93
2023-04-03T22:46:01.311Z,54.74
2023-04-03T22:48:28.194Z,55.40
2023-04-03T22:50:55.425Z,54.75
2023-04-03T22:53:22.037Z,54.87
2023-04-03T22:55:58.812Z,54.69
2023-04-03T22:58:26.484Z,55.51
2023-04-03T23:01:10.267Z,55.46
2023-04-03T23:03:38.415Z,55.02
2023-04-03T23:06:06.222Z,55.37
2023-04-03T23:08:34.993Z,54.95
2023-04-03T23:11:02.151Z,55.73
2023-04-03T23:13:28.724Z,55.32
2023-04-03T23:15:59.320Z,55.80
2023-04-03T23:18:29.337Z,55.92
2023-04-03T23:20:56.965Z,55.57
2023-04-03T23:23:24.443Z,55.93
2023-04-03T23:25:54.999Z,55.26
2023-04-03T23:28:21.632Z,55.96
2023-04-03T23:30:48.856Z,55.94
2023-04-03T23:33:15.452Z,55.81
2023-04-03T23:35:44.122Z,56.82
2023-04-03T23:38:10.728Z,57.12
2023-04-03T23:40:37.212Z,56.44
2023-04-03T23:43:03.786Z,56.52
2023-04-03T23:45:30.214Z,57.61
2023-04-03T23:47:56.640Z,57.80
2023-04-03T23:50:23.229Z,57.90
2023-04-03T23:52:49.667Z,57.89
2023-04-03T23:55:16.104Z,57.48
2023-04-03T23:57:42.823Z,57.91
